sensor_id;sensor_type;location;lat;lon;timestamp;P1;durP1;ratioP1;P2;durP2;ratioP2
46198;SDS011;31928;52.104;10.030;2022-08-19T05:39:37;4.53;;;2.67;;
46198;SDS011;31928;52.104;10.030;2022-08-19T05:42:05;4.13;;;2.97;;
46198;SDS011;31928;52.104;10.030;2022-08-19T05:44:35;4.38;;;3.88;;
46198;SDS011;31928;52.104;10.030;2022-08-19T05:47:05;4.68;;;4.28;;
46198;SDS011;31928;52.104;10.030;2022-08-19T05:49:32;5.53;;;4.95;;
46198;SDS011;31928;52.104;10.030;2022-08-19T05:52:07;4.57;;;4.18;;
46198;SDS011;31928;52.104;10.030;2022-08-19T05:54:38;4.32;;;3.95;;
46198;SDS011;31928;52.104;10.030;2022-08-19T05:57:09;4.57;;;4.00;;
46198;SDS011;31928;52.104;10.030;2022-08-19T05:59:38;5.38;;;3.50;;
46198;SDS011;31928;52.104;10.030;2022-08-19T06:02:05;4.45;;;3.90;;
46198;SDS011;31928;52.104;10.030;2022-08-19T06:04:33;4.80;;;3.88;;
46198;SDS011;31928;52.104;10.030;2022-08-19T06:07:00;5.22;;;4.43;;
46198;SDS011;31928;52.104;10.030;2022-08-19T06:09:38;4.38;;;3.97;;
46198;SDS011;31928;52.104;10.030;2022-08-19T06:12:05;5.00;;;4.53;;
46198;SDS011;31928;52.104;10.030;2022-08-19T06:14:33;4.50;;;4.10;;
46198;SDS011;31928;52.104;10.030;2022-08-19T06:17:06;4.50;;;4.10;;
46198;SDS011;31928;52.104;10.030;2022-08-19T06:19:33;4.80;;;4.40;;
46198;SDS011;31928;52.104;10.030;2022-08-19T06:22:06;4.85;;;4.20;;
46198;SDS011;31928;52.104;10.030;2022-08-19T06:24:33;4.60;;;4.20;;
46198;SDS011;31928;52.104;10.030;2022-08-19T06:27:01;4.65;;;4.20;;
46198;SDS011;31928;52.104;10.030;2022-08-19T06:29:31;4.95;;;4.55;;
46198;SDS011;31928;52.104;10.030;2022-08-19T06:31:59;5.32;;;4.85;;
46198;SDS011;31928;52.104;10.030;2022-08-19T06:34:30;5.88;;;5.28;;
46198;SDS011;31928;52.104;10.030;2022-08-19T06:36:59;5.32;;;4.90;;
46198;SDS011;31928;52.104;10.030;2022-08-19T06:39:30;6.57;;;5.97;;
46198;SDS011;31928;52.104;10.030;2022-08-19T06:41:59;5.80;;;5.20;;
46198;SDS011;31928;52.104;10.030;2022-08-19T06:44:29;5.00;;;4.53;;
46198;SDS011;31928;52.104;10.030;2022-08-19T06:47:08;5.55;;;5.05;;
46198;SDS011;31928;52.104;10.030;2022-08-19T06:49:40;4.53;;;4.13;;
46198;SDS011;31928;52.104;10.030;2022-08-19T06:52:07;4.63;;;4.22;;
46198;SDS011;31928;52.104;10.030;2022-08-19T06:54:38;4.47;;;4.13;;
46198;SDS011;31928;52.104;10.030;2022-08-19T06:57:21;4.63;;;4.22;;
46198;SDS011;31928;52.104;10.030;2022-08-19T06:59:48;4.78;;;4.38;;
46198;SDS011;31928;52.104;10.030;2022-08-19T07:02:15;6.25;;;5.65;;
46198;SDS011;31928;52.104;10.030;2022-08-19T07:05:01;6.80;;;5.77;;
46198;SDS011;31928;52.104;10.030;2022-08-19T07:07:31;5.40;;;4.90;;
46198;SDS011;31928;52.104;10.030;2022-08-19T07:09:58;4.93;;;4.43;;
46198;SDS011;31928;52.104;10.030;2022-08-19T07:12:29;5.53;;;4.95;;
46198;SDS011;31928;52.104;10.030;2022-08-19T07:15:04;5.80;;;5.30;;
46198;SDS011;31928;52.104;10.030;2022-08-19T07:17:31;4.93;;;4.50;;
46198;SDS011;31928;52.104;10.030;2022-08-19T07:19:59;5.22;;;4.72;;
46198;SDS011;31928;52.104;10.030;2022-08-19T07:22:32;5.22;;;4.82;;
46198;SDS011;31928;52.104;10.030;2022-08-19T07:25:00;6.15;;;5.55;;
46198;SDS011;31928;52.104;10.030;2022-08-19T07:27:29;6.28;;;5.72;;
46198;SDS011;31928;52.104;10.030;2022-08-19T07:29:58;6.00;;;5.40;;
46198;SDS011;31928;52.104;10.030;2022-08-19T07:32:26;7.15;;;6.45;;
46198;SDS011;31928;52.104;10.030;2022-08-19T07:34:53;11.93;;;7.82;;
46198;SDS011;31928;52.104;10.030;2022-08-19T07:37:21;7.53;;;6.72;;
46198;SDS011;31928;52.104;10.030;2022-08-19T07:39:48;7.07;;;6.45;;
46198;SDS011;31928;52.104;10.030;2022-08-19T07:42:15;7.30;;;6.68;;
46198;SDS011;31928;52.104;10.030;2022-08-19T07:44:43;7.32;;;6.72;;
46198;SDS011;31928;52.104;10.030;2022-08-19T07:47:16;9.18;;;8.15;;
46198;SDS011;31928;52.104;10.030;2022-08-19T07:50:05;7.72;;;7.00;;
46198;SDS011;31928;52.104;10.030;2022-08-19T07:52:34;9.73;;;8.63;;
46198;SDS011;31928;52.104;10.030;2022-08-19T07:55:03;8.68;;;7.82;;
46198;SDS011;31928;52.104;10.030;2022-08-19T07:57:30;8.95;;;8.05;;
46198;SDS011;31928;52.104;10.030;2022-08-19T07:59:57;8.40;;;7.60;;
46198;SDS011;31928;52.104;10.030;2022-08-19T08:02:24;10.00;;;8.60;;
46198;SDS011;31928;52.104;10.030;2022-08-19T08:04:51;9.65;;;8.63;;
46198;SDS011;31928;52.104;10.030;2022-08-19T08:07:36;8.85;;;8.02;;
46198;SDS011;31928;52.104;10.030;2022-08-19T08:10:21;8.93;;;8.02;;
46198;SDS011;31928;52.104;10.030;2022-08-19T08:12:49;8.45;;;7.72;;
46198;SDS011;31928;52.104;10.030;2022-08-19T08:15:35;9.85;;;8.88;;
46198;SDS011;31928;52.104;10.030;2022-08-19T08:18:07;8.30;;;7.57;;
46198;SDS011;31928;52.104;10.030;2022-08-19T08:20:34;8.38;;;7.57;;
46198;SDS011;31928;52.104;10.030;2022-08-19T08:23:01;8.35;;;7.57;;
46198;SDS011;31928;52.104;10.030;2022-08-19T08:25:46;8.30;;;7.53;;
46198;SDS011;31928;52.104;10.030;2022-08-19T08:28:15;8.77;;;7.97;;
46198;SDS011;31928;52.104;10.030;2022-08-19T08:30:45;8.27;;;7.47;;
46198;SDS011;31928;52.104;10.030;2022-08-19T08:33:19;7.78;;;7.05;;
46198;SDS011;31928;52.104;10.030;2022-08-19T08:35:59;8.27;;;7.47;;
46198;SDS011;31928;52.104;10.030;2022-08-19T08:38:37;8.77;;;7.88;;
46198;SDS011;31928;52.104;10.030;2022-08-19T08:44:11;7.53;;;6.82;;
46198;SDS011;31928;52.104;10.030;2022-08-19T08:46:48;7.88;;;7.18;;
46198;SDS011;31928;52.104;10.030;2022-08-19T08:49:20;7.68;;;6.88;;
46198;SDS011;31928;52.104;10.030;2022-08-19T08:52:05;7.13;;;6.53;;
46198;SDS011;31928;52.104;10.030;2022-08-19T08:54:40;7.40;;;6.68;;
46198;SDS011;31928;52.104;10.030;2022-08-19T08:59:54;7.60;;;6.90;;
46198;SDS011;31928;52.104;10.030;2022-08-19T09:02:26;6.60;;;5.60;;
46198;SDS011;31928;52.104;10.030;2022-08-19T09:04:53;5.70;;;5.15;;
46198;SDS011;31928;52.104;10.030;2022-08-19T09:10:31;5.07;;;4.57;;
46198;SDS011;31928;52.104;10.030;2022-08-19T09:13:24;8.73;;;4.50;;
46198;SDS011;31928;52.104;10.030;2022-08-19T09:15:56;5.15;;;4.70;;
46198;SDS011;31928;52.104;10.030;2022-08-19T09:21:06;5.15;;;4.70;;
46198;SDS011;31928;52.104;10.030;2022-08-19T09:23:35;5.13;;;4.65;;
46198;SDS011;31928;52.104;10.030;2022-08-19T09:26:06;5.20;;;4.70;;
46198;SDS011;31928;52.104;10.030;2022-08-19T09:28:42;4.32;;;4.03;;
46198;SDS011;31928;52.104;10.030;2022-08-19T09:31:14;4.38;;;3.97;;
46198;SDS011;31928;52.104;10.030;2022-08-19T09:33:43;4.75;;;4.35;;
46198;SDS011;31928;52.104;10.030;2022-08-19T09:36:12;4.95;;;4.45;;
46198;SDS011;31928;52.104;10.030;2022-08-19T09:38:54;5.05;;;4.65;;
46198;SDS011;31928;52.104;10.030;2022-08-19T09:41:24;5.25;;;4.75;;
46198;SDS011;31928;52.104;10.030;2022-08-19T09:43:54;4.90;;;4.50;;
46198;SDS011;31928;52.104;10.030;2022-08-19T09:46:23;7.28;;;4.43;;
46198;SDS011;31928;52.104;10.030;2022-08-19T09:48:52;5.18;;;3.80;;
46198;SDS011;31928;52.104;10.030;2022-08-19T09:51:23;3.40;;;2.80;;
46198;SDS011;31928;52.104;10.030;2022-08-19T09:53:53;3.47;;;2.75;;
46198;SDS011;31928;52.104;10.030;2022-08-19T09:56:22;2.80;;;2.47;;
46198;SDS011;31928;52.104;10.030;2022-08-19T09:58:49;3.20;;;2.97;;
46198;SDS011;31928;52.104;10.030;2022-08-19T10:01:17;3.08;;;2.78;;
46198;SDS011;31928;52.104;10.030;2022-08-19T10:03:51;3.60;;;2.47;;
46198;SDS011;31928;52.104;10.030;2022-08-19T10:06:21;3.00;;;2.80;;
46198;SDS011;31928;52.104;10.030;2022-08-19T10:09:10;3.30;;;2.58;;
46198;SDS011;31928;52.104;10.030;2022-08-19T10:11:39;3.45;;;2.75;;
46198;SDS011;31928;52.104;10.030;2022-08-19T10:14:17;2.35;;;2.15;;
46198;SDS011;31928;52.104;10.030;2022-08-19T10:16:48;2.05;;;1.70;;
46198;SDS011;31928;52.104;10.030;2022-08-19T10:19:15;2.38;;;2.20;;
46198;SDS011;31928;52.104;10.030;2022-08-19T10:21:51;2.42;;;2.17;;
46198;SDS011;31928;52.104;10.030;2022-08-19T10:24:19;2.53;;;2.30;;
46198;SDS011;31928;52.104;10.030;2022-08-19T10:26:46;5.43;;;2.10;;
46198;SDS011;31928;52.104;10.030;2022-08-19T10:29:24;2.63;;;2.42;;
46198;SDS011;31928;52.104;10.030;2022-08-19T10:32:02;2.33;;;2.13;;
46198;SDS011;31928;52.104;10.030;2022-08-19T10:37:13;2.40;;;2.17;;
46198;SDS011;31928;52.104;10.030;2022-08-19T10:39:44;2.28;;;2.08;;
46198;SDS011;31928;52.104;10.030;2022-08-19T10:42:14;2.75;;;2.55;;
46198;SDS011;31928;52.104;10.030;2022-08-19T10:44:42;2.15;;;1.98;;
46198;SDS011;31928;52.104;10.030;2022-08-19T10:47:09;2.65;;;2.22;;
46198;SDS011;31928;52.104;10.030;2022-08-19T10:49:50;2.15;;;1.95;;
46198;SDS011;31928;52.104;10.030;2022-08-19T10:52:37;2.22;;;1.92;;
46198;SDS011;31928;52.104;10.030;2022-08-19T10:55:14;1.92;;;1.83;;
46198;SDS011;31928;52.104;10.030;2022-08-19T10:57:59;1.80;;;1.70;;
46198;SDS011;31928;52.104;10.030;2022-08-19T11:00:28;1.63;;;1.52;;
46198;SDS011;31928;52.104;10.030;2022-08-19T11:02:55;2.40;;;1.50;;
46198;SDS011;31928;52.104;10.030;2022-08-19T11:05:21;1.75;;;1.35;;
46198;SDS011;31928;52.104;10.030;2022-08-19T11:07:49;1.33;;;1.23;;
46198;SDS011;31928;52.104;10.030;2022-08-19T11:10:18;1.63;;;1.45;;
46198;SDS011;31928;52.104;10.030;2022-08-19T11:12:48;1.92;;;1.50;;
46198;SDS011;31928;52.104;10.030;2022-08-19T11:15:14;2.97;;;1.73;;
46198;SDS011;31928;52.104;10.030;2022-08-19T11:17:42;4.60;;;1.30;;
46198;SDS011;31928;52.104;10.030;2022-08-19T11:20:13;1.70;;;1.50;;
46198;SDS011;31928;52.104;10.030;2022-08-19T11:22:41;2.28;;;1.30;;
46198;SDS011;31928;52.104;10.030;2022-08-19T11:25:09;1.40;;;1.30;;
46198;SDS011;31928;52.104;10.030;2022-08-19T11:27:37;1.25;;;1.15;;
46198;SDS011;31928;52.104;10.030;2022-08-19T11:30:07;1.35;;;1.25;;
46198;SDS011;31928;52.104;10.030;2022-08-19T11:32:38;1.40;;;1.30;;
46198;SDS011;31928;52.104;10.030;2022-08-19T11:35:12;1.10;;;1.00;;
46198;SDS011;31928;52.104;10.030;2022-08-19T11:37:39;1.20;;;1.10;;
46198;SDS011;31928;52.104;10.030;2022-08-19T11:40:07;1.30;;;1.20;;
46198;SDS011;31928;52.104;10.030;2022-08-19T11:42:34;1.20;;;1.10;;
46198;SDS011;31928;52.104;10.030;2022-08-19T11:45:20;1.30;;;0.95;;
46198;SDS011;31928;52.104;10.030;2022-08-19T11:47:47;1.40;;;1.20;;
46198;SDS011;31928;52.104;10.030;2022-08-19T11:50:14;1.42;;;1.33;;
46198;SDS011;31928;52.104;10.030;2022-08-19T11:52:41;1.90;;;1.60;;
46198;SDS011;31928;52.104;10.030;2022-08-19T11:55:10;1.27;;;1.20;;
46198;SDS011;31928;52.104;10.030;2022-08-19T11:57:37;1.30;;;1.20;;
46198;SDS011;31928;52.104;10.030;2022-08-19T12:00:07;1.10;;;1.00;;
46198;SDS011;31928;52.104;10.030;2022-08-19T12:02:35;1.20;;;1.10;;
46198;SDS011;31928;52.104;10.030;2022-08-19T12:05:02;1.33;;;0.90;;
46198;SDS011;31928;52.104;10.030;2022-08-19T12:07:32;1.40;;;1.17;;
46198;SDS011;31928;52.104;10.030;2022-08-19T12:09:59;1.35;;;1.20;;
46198;SDS011;31928;52.104;10.030;2022-08-19T12:12:28;1.30;;;1.20;;
46198;SDS011;31928;52.104;10.030;2022-08-19T12:14:55;1.77;;;1.00;;
46198;SDS011;31928;52.104;10.030;2022-08-19T12:17:25;1.70;;;1.10;;
46198;SDS011;31928;52.104;10.030;2022-08-19T12:19:53;1.02;;;1.02;;
46198;SDS011;31928;52.104;10.030;2022-08-19T12:22:20;1.08;;;0.93;;
46198;SDS011;31928;52.104;10.030;2022-08-19T12:24:47;1.15;;;1.05;;
46198;SDS011;31928;52.104;10.030;2022-08-19T12:27:16;1.25;;;1.15;;
46198;SDS011;31928;52.104;10.030;2022-08-19T12:30:01;1.38;;;1.25;;
46198;SDS011;31928;52.104;10.030;2022-08-19T12:32:29;1.70;;;1.23;;
46198;SDS011;31928;52.104;10.030;2022-08-19T12:34:55;2.13;;;0.95;;
46198;SDS011;31928;52.104;10.030;2022-08-19T12:37:22;1.20;;;1.10;;
46198;SDS011;31928;52.104;10.030;2022-08-19T12:39:49;1.77;;;1.40;;
46198;SDS011;31928;52.104;10.030;2022-08-19T12:42:15;1.20;;;1.10;;
46198;SDS011;31928;52.104;10.030;2022-08-19T12:44:43;1.25;;;1.15;;
46198;SDS011;31928;52.104;10.030;2022-08-19T12:47:11;1.08;;;1.02;;
46198;SDS011;31928;52.104;10.030;2022-08-19T12:49:41;0.95;;;0.95;;
46198;SDS011;31928;52.104;10.030;2022-08-19T12:52:21;1.10;;;1.00;;
46198;SDS011;31928;52.104;10.030;2022-08-19T12:54:49;1.15;;;1.05;;
46198;SDS011;31928;52.104;10.030;2022-08-19T12:57:20;1.08;;;0.98;;
46198;SDS011;31928;52.104;10.030;2022-08-19T12:59:56;1.30;;;1.20;;
46198;SDS011;31928;52.104;10.030;2022-08-19T13:02:23;1.30;;;1.20;;
46198;SDS011;31928;52.104;10.030;2022-08-19T13:04:49;2.60;;;1.02;;
46198;SDS011;31928;52.104;10.030;2022-08-19T13:07:16;1.30;;;1.20;;
46198;SDS011;31928;52.104;10.030;2022-08-19T13:09:42;1.52;;;0.90;;
46198;SDS011;31928;52.104;10.030;2022-08-19T13:12:09;0.98;;;0.98;;
46198;SDS011;31928;52.104;10.030;2022-08-19T13:14:39;1.20;;;1.10;;
46198;SDS011;31928;52.104;10.030;2022-08-19T13:17:06;0.98;;;0.95;;
46198;SDS011;31928;52.104;10.030;2022-08-19T13:19:35;0.93;;;0.88;;
46198;SDS011;31928;52.104;10.030;2022-08-19T13:22:02;1.23;;;1.13;;
46198;SDS011;31928;52.104;10.030;2022-08-19T13:24:37;1.00;;;0.82;;
46198;SDS011;31928;52.104;10.030;2022-08-19T13:27:07;1.17;;;1.08;;
46198;SDS011;31928;52.104;10.030;2022-08-19T13:29:34;0.88;;;0.88;;
46198;SDS011;31928;52.104;10.030;2022-08-19T13:32:19;1.20;;;1.02;;
46198;SDS011;31928;52.104;10.030;2022-08-19T13:35:07;1.23;;;1.00;;
46198;SDS011;31928;52.104;10.030;2022-08-19T13:37:36;0.80;;;0.80;;
46198;SDS011;31928;52.104;10.030;2022-08-19T13:40:13;1.20;;;1.10;;
46198;SDS011;31928;52.104;10.030;2022-08-19T13:45:14;0.80;;;0.80;;
46198;SDS011;31928;52.104;10.030;2022-08-19T13:47:45;0.80;;;0.80;;
46198;SDS011;31928;52.104;10.030;2022-08-19T13:50:15;1.00;;;0.90;;
46198;SDS011;31928;52.104;10.030;2022-08-19T13:52:43;0.98;;;0.85;;
46198;SDS011;31928;52.104;10.030;2022-08-19T13:55:11;1.10;;;1.10;;
46198;SDS011;31928;52.104;10.030;2022-08-19T13:57:38;1.05;;;0.98;;
46198;SDS011;31928;52.104;10.030;2022-08-19T14:00:07;1.30;;;1.10;;
46198;SDS011;31928;52.104;10.030;2022-08-19T14:02:44;0.88;;;0.77;;
46198;SDS011;31928;52.104;10.030;2022-08-19T14:05:13;2.08;;;1.88;;
46198;SDS011;31928;52.104;10.030;2022-08-19T14:07:42;1.27;;;0.90;;
46198;SDS011;31928;52.104;10.030;2022-08-19T14:10:09;1.58;;;1.00;;
46198;SDS011;31928;52.104;10.030;2022-08-19T14:12:37;1.52;;;1.05;;
46198;SDS011;31928;52.104;10.030;2022-08-19T14:15:05;2.67;;;1.17;;
46198;SDS011;31928;52.104;10.030;2022-08-19T14:17:33;1.10;;;1.00;;
46198;SDS011;31928;52.104;10.030;2022-08-19T14:20:01;1.10;;;1.00;;
46198;SDS011;31928;52.104;10.030;2022-08-19T14:22:36;0.93;;;0.93;;
46198;SDS011;31928;52.104;10.030;2022-08-19T14:25:12;1.15;;;0.80;;
46198;SDS011;31928;52.104;10.030;2022-08-19T14:27:40;1.45;;;0.85;;
46198;SDS011;31928;52.104;10.030;2022-08-19T14:30:08;3.33;;;0.88;;
46198;SDS011;31928;52.104;10.030;2022-08-19T14:32:37;0.73;;;0.73;;
46198;SDS011;31928;52.104;10.030;2022-08-19T14:35:04;1.00;;;0.90;;
46198;SDS011;31928;52.104;10.030;2022-08-19T14:37:32;0.80;;;0.80;;
46198;SDS011;31928;52.104;10.030;2022-08-19T14:40:10;0.80;;;0.80;;
46198;SDS011;31928;52.104;10.030;2022-08-19T14:42:38;1.55;;;0.82;;
46198;SDS011;31928;52.104;10.030;2022-08-19T14:45:05;1.25;;;1.15;;
46198;SDS011;31928;52.104;10.030;2022-08-19T14:47:32;0.90;;;0.90;;
46198;SDS011;31928;52.104;10.030;2022-08-19T14:49:59;1.90;;;1.00;;
46198;SDS011;31928;52.104;10.030;2022-08-19T14:52:30;0.90;;;0.90;;
46198;SDS011;31928;52.104;10.030;2022-08-19T14:54:57;1.08;;;1.00;;
46198;SDS011;31928;52.104;10.030;2022-08-19T14:57:23;2.05;;;1.70;;
46198;SDS011;31928;52.104;10.030;2022-08-19T14:59:50;1.52;;;1.40;;
46198;SDS011;31928;52.104;10.030;2022-08-19T15:02:16;3.70;;;1.52;;
46198;SDS011;31928;52.104;10.030;2022-08-19T15:05:00;1.48;;;1.20;;
46198;SDS011;31928;52.104;10.030;2022-08-19T15:07:26;1.17;;;1.08;;
46198;SDS011;31928;52.104;10.030;2022-08-19T15:09:55;1.20;;;1.10;;
46198;SDS011;31928;52.104;10.030;2022-08-19T15:12:22;1.98;;;1.25;;
46198;SDS011;31928;52.104;10.030;2022-08-19T15:14:50;1.17;;;1.08;;
46198;SDS011;31928;52.104;10.030;2022-08-19T15:17:21;1.60;;;1.13;;
46198;SDS011;31928;52.104;10.030;2022-08-19T15:22:36;2.80;;;1.05;;
46198;SDS011;31928;52.104;10.030;2022-08-19T15:25:03;1.10;;;1.00;;
46198;SDS011;31928;52.104;10.030;2022-08-19T15:27:31;1.05;;;1.05;;
46198;SDS011;31928;52.104;10.030;2022-08-19T15:29:57;1.00;;;1.00;;
46198;SDS011;31928;52.104;10.030;2022-08-19T15:32:26;1.27;;;0.88;;
46198;SDS011;31928;52.104;10.030;2022-08-19T15:34:54;0.88;;;0.88;;
46198;SDS011;31928;52.104;10.030;2022-08-19T15:37:20;1.33;;;1.05;;
46198;SDS011;31928;52.104;10.030;2022-08-19T15:39:49;1.00;;;1.00;;
46198;SDS011;31928;52.104;10.030;2022-08-19T15:42:16;0.90;;;0.90;;
46198;SDS011;31928;52.104;10.030;2022-08-19T15:44:55;1.30;;;1.20;;
46198;SDS011;31928;52.104;10.030;2022-08-19T15:47:27;1.23;;;1.13;;
46198;SDS011;31928;52.104;10.030;2022-08-19T15:50:14;1.33;;;1.08;;
46198;SDS011;31928;52.104;10.030;2022-08-19T15:52:47;1.00;;;0.93;;
46198;SDS011;31928;52.104;10.030;2022-08-19T15:55:22;1.33;;;1.10;;
46198;SDS011;31928;52.104;10.030;2022-08-19T15:58:10;1.05;;;1.05;;
46198;SDS011;31928;52.104;10.030;2022-08-19T16:01:01;1.25;;;0.98;;
46198;SDS011;31928;52.104;10.030;2022-08-19T16:03:52;1.98;;;1.55;;
46198;SDS011;31928;52.104;10.030;2022-08-19T16:06:45;1.20;;;1.02;;
46198;SDS011;31928;52.104;10.030;2022-08-19T16:09:13;3.08;;;1.40;;
46198;SDS011;31928;52.104;10.030;2022-08-19T16:11:41;5.50;;;1.92;;
46198;SDS011;31928;52.104;10.030;2022-08-19T16:14:12;1.23;;;1.00;;
46198;SDS011;31928;52.104;10.030;2022-08-19T16:16:39;1.20;;;1.10;;
46198;SDS011;31928;52.104;10.030;2022-08-19T16:19:07;1.00;;;0.90;;
46198;SDS011;31928;52.104;10.030;2022-08-19T16:21:37;0.88;;;0.88;;
46198;SDS011;31928;52.104;10.030;2022-08-19T16:24:08;2.38;;;1.00;;
46198;SDS011;31928;52.104;10.030;2022-08-19T16:26:37;1.13;;;1.02;;
46198;SDS011;31928;52.104;10.030;2022-08-19T16:29:04;1.00;;;1.00;;
46198;SDS011;31928;52.104;10.030;2022-08-19T16:31:38;1.20;;;1.10;;
46198;SDS011;31928;52.104;10.030;2022-08-19T16:34:09;0.85;;;0.85;;
46198;SDS011;31928;52.104;10.030;2022-08-19T16:36:36;1.13;;;0.90;;
46198;SDS011;31928;52.104;10.030;2022-08-19T16:39:10;1.02;;;1.00;;
46198;SDS011;31928;52.104;10.030;2022-08-19T16:41:40;1.55;;;1.10;;
46198;SDS011;31928;52.104;10.030;2022-08-19T16:44:08;1.40;;;1.13;;
46198;SDS011;31928;52.104;10.030;2022-08-19T16:46:37;2.65;;;1.25;;
46198;SDS011;31928;52.104;10.030;2022-08-19T16:49:05;0.90;;;0.90;;
46198;SDS011;31928;52.104;10.030;2022-08-19T16:51:32;1.55;;;1.00;;
46198;SDS011;31928;52.104;10.030;2022-08-19T16:53:59;1.02;;;0.93;;
46198;SDS011;31928;52.104;10.030;2022-08-19T16:56:26;1.38;;;1.10;;
46198;SDS011;31928;52.104;10.030;2022-08-19T16:58:54;11.40;;;7.75;;
46198;SDS011;31928;52.104;10.030;2022-08-19T17:01:21;185.13;;;153.98;;
46198;SDS011;31928;52.104;10.030;2022-08-19T17:03:47;156.40;;;142.70;;
46198;SDS011;31928;52.104;10.030;2022-08-19T17:06:16;63.05;;;57.63;;
46198;SDS011;31928;52.104;10.030;2022-08-19T17:08:49;26.48;;;24.42;;
46198;SDS011;31928;52.104;10.030;2022-08-19T17:11:21;13.15;;;12.15;;
46198;SDS011;31928;52.104;10.030;2022-08-19T17:13:49;6.15;;;5.72;;
46198;SDS011;31928;52.104;10.030;2022-08-19T17:16:17;3.53;;;3.22;;
46198;SDS011;31928;52.104;10.030;2022-08-19T17:18:45;2.45;;;2.25;;
46198;SDS011;31928;52.104;10.030;2022-08-19T17:21:11;4.13;;;2.00;;
46198;SDS011;31928;52.104;10.030;2022-08-19T17:23:38;1.33;;;1.23;;
46198;SDS011;31928;52.104;10.030;2022-08-19T17:26:08;2.53;;;1.30;;
46198;SDS011;31928;52.104;10.030;2022-08-19T17:28:43;1.30;;;1.20;;
46198;SDS011;31928;52.104;10.030;2022-08-19T17:31:11;1.20;;;1.10;;
46198;SDS011;31928;52.104;10.030;2022-08-19T17:33:37;2.08;;;1.20;;
46198;SDS011;31928;52.104;10.030;2022-08-19T17:36:07;2.00;;;1.55;;
46198;SDS011;31928;52.104;10.030;2022-08-19T17:38:34;2.10;;;1.10;;
46198;SDS011;31928;52.104;10.030;2022-08-19T17:41:02;1.17;;;1.02;;
46198;SDS011;31928;52.104;10.030;2022-08-19T17:43:32;1.30;;;1.00;;
46198;SDS011;31928;52.104;10.030;2022-08-19T17:46:08;1.30;;;1.20;;
46198;SDS011;31928;52.104;10.030;2022-08-19T17:48:36;1.08;;;0.98;;
46198;SDS011;31928;52.104;10.030;2022-08-19T17:51:17;1.25;;;1.15;;
46198;SDS011;31928;52.104;10.030;2022-08-19T17:53:47;1.10;;;1.00;;
46198;SDS011;31928;52.104;10.030;2022-08-19T17:56:15;3.28;;;1.10;;
46198;SDS011;31928;52.104;10.030;2022-08-19T17:58:42;3.00;;;1.52;;
46198;SDS011;31928;52.104;10.030;2022-08-19T18:01:23;2.17;;;1.08;;
46198;SDS011;31928;52.104;10.030;2022-08-19T18:03:51;2.97;;;1.60;;
46198;SDS011;31928;52.104;10.030;2022-08-19T18:06:17;2.33;;;1.45;;
46198;SDS011;31928;52.104;10.030;2022-08-19T18:08:44;3.17;;;1.08;;
46198;SDS011;31928;52.104;10.030;2022-08-19T18:11:14;2.90;;;1.20;;
46198;SDS011;31928;52.104;10.030;2022-08-19T18:13:42;2.88;;;1.40;;
46198;SDS011;31928;52.104;10.030;2022-08-19T18:16:08;1.65;;;1.35;;
46198;SDS011;31928;52.104;10.030;2022-08-19T18:18:39;2.05;;;1.17;;
46198;SDS011;31928;52.104;10.030;2022-08-19T18:21:07;2.53;;;1.17;;
46198;SDS011;31928;52.104;10.030;2022-08-19T18:23:35;1.75;;;1.30;;
46198;SDS011;31928;52.104;10.030;2022-08-19T18:26:10;2.63;;;1.33;;
46198;SDS011;31928;52.104;10.030;2022-08-19T18:28:37;2.28;;;1.35;;
46198;SDS011;31928;52.104;10.030;2022-08-19T18:31:15;2.40;;;1.30;;
46198;SDS011;31928;52.104;10.030;2022-08-19T18:33:42;2.05;;;1.15;;
46198;SDS011;31928;52.104;10.030;2022-08-19T18:36:10;4.60;;;2.00;;
46198;SDS011;31928;52.104;10.030;2022-08-19T18:38:36;6.47;;;1.50;;
46198;SDS011;31928;52.104;10.030;2022-08-19T18:41:23;2.13;;;1.10;;
46198;SDS011;31928;52.104;10.030;2022-08-19T18:44:08;2.88;;;1.25;;
46198;SDS011;31928;52.104;10.030;2022-08-19T18:46:53;1.60;;;1.20;;
46198;SDS011;31928;52.104;10.030;2022-08-19T18:49:38;1.65;;;1.48;;
46198;SDS011;31928;52.104;10.030;2022-08-19T18:52:05;2.53;;;2.20;;
46198;SDS011;31928;52.104;10.030;2022-08-19T18:54:32;3.10;;;2.08;;
46198;SDS011;31928;52.104;10.030;2022-08-19T18:56:59;1.65;;;1.50;;
46198;SDS011;31928;52.104;10.030;2022-08-19T18:59:28;1.58;;;1.45;;
46198;SDS011;31928;52.104;10.030;2022-08-19T19:01:55;4.93;;;1.70;;
46198;SDS011;31928;52.104;10.030;2022-08-19T19:04:30;2.75;;;1.40;;
46198;SDS011;31928;52.104;10.030;2022-08-19T19:07:01;1.63;;;1.48;;
46198;SDS011;31928;52.104;10.030;2022-08-19T19:09:30;4.80;;;1.42;;
46198;SDS011;31928;52.104;10.030;2022-08-19T19:11:57;2.70;;;1.55;;
46198;SDS011;31928;52.104;10.030;2022-08-19T19:14:27;3.25;;;1.38;;
46198;SDS011;31928;52.104;10.030;2022-08-19T19:17:14;2.17;;;1.45;;
46198;SDS011;31928;52.104;10.030;2022-08-19T19:19:41;1.40;;;1.20;;
46198;SDS011;31928;52.104;10.030;2022-08-19T19:22:13;2.20;;;1.33;;
46198;SDS011;31928;52.104;10.030;2022-08-19T19:24:42;2.70;;;1.30;;
46198;SDS011;31928;52.104;10.030;2022-08-19T19:27:10;3.83;;;1.23;;
46198;SDS011;31928;52.104;10.030;2022-08-19T19:29:38;7.10;;;1.88;;
46198;SDS011;31928;52.104;10.030;2022-08-19T19:32:06;3.50;;;1.38;;
46198;SDS011;31928;52.104;10.030;2022-08-19T19:34:43;1.35;;;1.25;;
46198;SDS011;31928;52.104;10.030;2022-08-19T19:37:10;1.77;;;1.35;;
46198;SDS011;31928;52.104;10.030;2022-08-19T19:39:37;1.60;;;1.50;;
46198;SDS011;31928;52.104;10.030;2022-08-19T19:42:13;3.28;;;1.80;;
46198;SDS011;31928;52.104;10.030;2022-08-19T19:44:46;1.50;;;1.40;;
46198;SDS011;31928;52.104;10.030;2022-08-19T19:47:14;2.13;;;1.35;;
46198;SDS011;31928;52.104;10.030;2022-08-19T19:49:43;1.40;;;1.25;;
46198;SDS011;31928;52.104;10.030;2022-08-19T19:52:30;1.30;;;1.10;;
46198;SDS011;31928;52.104;10.030;2022-08-19T19:54:57;1.55;;;1.40;;
46198;SDS011;31928;52.104;10.030;2022-08-19T19:57:23;4.15;;;1.70;;
46198;SDS011;31928;52.104;10.030;2022-08-19T19:59:51;1.30;;;1.20;;
46198;SDS011;31928;52.104;10.030;2022-08-19T20:02:19;2.20;;;2.00;;
46198;SDS011;31928;52.104;10.030;2022-08-19T20:04:47;1.75;;;1.55;;
46198;SDS011;31928;52.104;10.030;2022-08-19T20:07:14;1.90;;;1.50;;
46198;SDS011;31928;52.104;10.030;2022-08-19T20:09:41;1.50;;;1.40;;
46198;SDS011;31928;52.104;10.030;2022-08-19T20:12:24;1.50;;;1.33;;
46198;SDS011;31928;52.104;10.030;2022-08-19T20:14:51;2.67;;;1.80;;
46198;SDS011;31928;52.104;10.030;2022-08-19T20:17:18;3.13;;;1.50;;
46198;SDS011;31928;52.104;10.030;2022-08-19T20:19:46;1.70;;;1.30;;
46198;SDS011;31928;52.104;10.030;2022-08-19T20:22:13;2.20;;;1.60;;
46198;SDS011;31928;52.104;10.030;2022-08-19T20:24:39;1.65;;;1.27;;
46198;SDS011;31928;52.104;10.030;2022-08-19T20:27:07;2.20;;;1.65;;
46198;SDS011;31928;52.104;10.030;2022-08-19T20:29:36;1.65;;;1.55;;
46198;SDS011;31928;52.104;10.030;2022-08-19T20:32:08;1.60;;;1.50;;
46198;SDS011;31928;52.104;10.030;2022-08-19T20:34:35;1.38;;;1.25;;
46198;SDS011;31928;52.104;10.030;2022-08-19T20:37:02;2.08;;;1.33;;
46198;SDS011;31928;52.104;10.030;2022-08-19T20:39:29;1.75;;;1.40;;
46198;SDS011;31928;52.104;10.030;2022-08-19T20:41:56;2.53;;;1.58;;
46198;SDS011;31928;52.104;10.030;2022-08-19T20:44:22;1.58;;;1.48;;
46198;SDS011;31928;52.104;10.030;2022-08-19T20:46:50;1.38;;;1.13;;
46198;SDS011;31928;52.104;10.030;2022-08-19T20:49:21;1.45;;;1.35;;
46198;SDS011;31928;52.104;10.030;2022-08-19T20:51:52;1.50;;;1.40;;